Time;durP1;ratioP1;P1;durP2;ratioP2;P2;SDS_P1;SDS_P2;PMS_P1;PMS_P2;Temp;Humidity;BMP_temperature;BMP_pressure;BME280_temperature;BME280_humidity;BME280_pressure;Samples;Min_cycle;Max_cycle;Signal;HPM_P1;HPM_P2
2024/01/13 00:00:01;;;;;;;;;;;19.60;45.80;;;;;;5092183;28;19942;-56
2024/01/13 00:02:28;;;;;;;;;;;19.70;45.80;;;;;;5081710;28;20369;-56
2024/01/13 00:04:55;;;;;;;;;;;19.60;45.80;;;;;;5092203;28;19931;-56
2024/01/13 00:07:23;;;;;;;;;;;19.60;46.40;;;;;;5092070;28;20310;-55
2024/01/13 00:09:50;;;;;;;;;;;19.60;45.80;;;;;;5092032;28;19924;-56
2024/01/13 00:12:17;;;;;;;;;;;19.60;45.80;;;;;;5087583;28;20289;-56
2024/01/13 00:14:44;;;;;;;;;;;19.60;45.80;;;;;;5074236;28;19924;-56
2024/01/13 00:17:11;;;;;;;;;;;19.60;45.80;;;;;;5093045;28;19920;-55
2024/01/13 00:19:37;;;;;;;;;;;19.60;45.80;;;;;;5077787;28;20385;-56
2024/01/13 00:22:04;;;;;;;;;;;19.60;45.80;;;;;;5091178;28;19924;-56
2024/01/13 00:24:32;;;;;;;;;;;19.60;45.80;;;;;;5082577;28;19924;-55
2024/01/13 00:26:59;;;;;;;;;;;19.60;45.80;;;;;;5073600;28;20288;-56
2024/01/13 00:29:26;;;;;;;;;;;19.60;45.80;;;;;;5080016;28;19978;-56
2024/01/13 00:31:53;;;;;;;;;;;19.60;45.80;;;;;;5073772;28;20321;-55
2024/01/13 00:34:19;;;;;;;;;;;19.60;45.80;;;;;;5078351;28;19924;-56
2024/01/13 00:36:46;;;;;;;;;;;19.60;45.70;;;;;;5073577;28;20259;-54
2024/01/13 00:39:13;;;;;;;;;;;19.60;45.80;;;;;;5091254;28;19924;-55
2024/01/13 00:41:41;;;;;;;;;;;19.60;45.80;;;;;;5091362;28;19935;-56
2024/01/13 00:44:08;;;;;;;;;;;19.60;45.80;;;;;;5079233;28;19942;-56
2024/01/13 00:46:34;;;;;;;;;;;19.60;45.80;;;;;;5082207;28;19924;-55
2024/01/13 00:49:01;;;;;;;;;;;19.60;45.70;;;;;;5073369;28;19935;-56
2024/01/13 00:51:28;;;;;;;;;;;19.60;45.70;;;;;;5073198;28;19970;-55
2024/01/13 00:53:55;;;;;;;;;;;19.60;45.70;;;;;;5091417;28;19938;-55
2024/01/13 00:56:22;;;;;;;;;;;19.60;45.70;;;;;;5073216;28;19924;-55
2024/01/13 00:58:50;;;;;;;;;;;19.60;45.70;;;;;;5075931;28;20005;-56
2024/01/13 01:01:17;;;;;;;;;;;19.60;45.70;;;;;;5091393;28;19977;-56
2024/01/13 01:03:43;;;;;;;;;;;19.60;45.70;;;;;;5076267;28;19969;-51
2024/01/13 01:06:10;;;;;;;;;;;19.60;45.70;;;;;;5098378;28;20009;-56
2024/01/13 01:08:37;;;;;;;;;;;19.60;45.70;;;;;;5077745;28;19981;-55
2024/01/13 01:11:04;;;;;;;;;;;19.60;45.70;;;;;;5077580;28;19927;-54
2024/01/13 01:13:31;;;;;;;;;;;19.60;45.70;;;;;;5073081;28;20391;-56
2024/01/13 01:15:59;;;;;;;;;;;19.60;45.70;;;;;;5080868;28;19974;-56
2024/01/13 01:18:25;;;;;;;;;;;19.60;45.70;;;;;;5073144;28;19920;-55
2024/01/13 01:20:52;;;;;;;;;;;19.60;45.70;;;;;;5072559;28;19920;-53
2024/01/13 01:23:18;;;;;;;;;;;19.60;45.70;;;;;;5083074;28;19927;-55
2024/01/13 01:25:45;;;;;;;;;;;19.50;45.50;;;;;;5087767;28;19920;-56
2024/01/13 01:28:11;;;;;;;;;;;19.60;45.60;;;;;;5072890;28;19920;-55
2024/01/13 01:30:38;;;;;;;;;;;19.50;45.50;;;;;;5085054;28;19924;-55
2024/01/13 01:33:07;;;;;;;;;;;19.50;45.50;;;;;;5078878;28;19942;-55
2024/01/13 01:35:33;;;;;;;;;;;19.50;45.50;;;;;;5077847;28;19941;-56
2024/01/13 01:38:00;;;;;;;;;;;19.60;45.60;;;;;;5097113;28;19926;-54
2024/01/13 01:40:27;;;;;;;;;;;19.50;45.50;;;;;;5097155;28;20419;-56
2024/01/13 01:42:54;;;;;;;;;;;19.50;45.50;;;;;;5070557;28;19977;-54
2024/01/13 01:45:21;;;;;;;;;;;19.50;45.50;;;;;;5082545;28;19921;-56
2024/01/13 01:47:47;;;;;;;;;;;19.60;45.50;;;;;;5070056;28;19987;-56
2024/01/13 01:50:15;;;;;;;;;;;19.50;46.00;;;;;;5084155;28;19928;-56
2024/01/13 01:52:42;;;;;;;;;;;19.50;45.40;;;;;;5089643;28;19920;-55
2024/01/13 01:55:09;;;;;;;;;;;19.50;45.40;;;;;;5073136;28;19924;-56
2024/01/13 01:57:38;;;;;;;;;;;19.50;45.40;;;;;;5072632;28;19970;-55
2024/01/13 02:00:06;;;;;;;;;;;19.50;45.40;;;;;;5092274;28;19927;-56
2024/01/13 02:02:32;;;;;;;;;;;19.50;45.50;;;;;;5079142;28;20006;-55
2024/01/13 02:05:00;;;;;;;;;;;19.50;45.50;;;;;;5084013;28;19920;-56
2024/01/13 02:07:28;;;;;;;;;;;19.50;45.40;;;;;;5082276;28;20144;-56
2024/01/13 02:09:55;;;;;;;;;;;19.50;45.40;;;;;;5074834;28;19930;-56
2024/01/13 02:12:22;;;;;;;;;;;19.50;45.60;;;;;;5094466;28;19968;-54
2024/01/13 02:14:50;;;;;;;;;;;19.50;45.50;;;;;;5094804;28;19935;-54
2024/01/13 02:17:17;;;;;;;;;;;19.50;46.00;;;;;;5095122;28;19962;-56
2024/01/13 02:19:43;;;;;;;;;;;19.50;45.40;;;;;;5085583;28;19924;-55
2024/01/13 02:22:12;;;;;;;;;;;19.50;45.40;;;;;;5083531;28;19939;-56
2024/01/13 02:24:44;;;;;;;;;;;19.50;45.40;;;;;;5076232;28;19924;-56
2024/01/13 02:27:11;;;;;;;;;;;19.50;45.40;;;;;;5076430;28;19920;-56
2024/01/13 02:29:38;;;;;;;;;;;19.50;45.40;;;;;;5079322;28;19942;-56
2024/01/13 02:32:05;;;;;;;;;;;19.50;45.50;;;;;;5075295;28;19973;-54
2024/01/13 02:34:31;;;;;;;;;;;19.50;45.40;;;;;;5093938;28;19920;-56
2024/01/13 02:36:58;;;;;;;;;;;19.50;45.40;;;;;;5080364;28;19922;-56
2024/01/13 02:39:27;;;;;;;;;;;19.50;45.40;;;;;;5076677;28;19926;-54
2024/01/13 02:41:53;;;;;;;;;;;19.50;45.40;;;;;;5082388;28;20053;-55
2024/01/13 02:44:20;;;;;;;;;;;19.50;45.40;;;;;;5084198;28;19927;-55
2024/01/13 02:46:47;;;;;;;;;;;19.50;45.40;;;;;;5074423;28;20296;-55
2024/01/13 02:49:14;;;;;;;;;;;19.50;45.40;;;;;;5082623;28;19924;-56
2024/01/13 02:51:40;;;;;;;;;;;19.50;45.40;;;;;;5084191;28;19970;-56
2024/01/13 02:54:07;;;;;;;;;;;19.50;45.40;;;;;;5075688;28;19942;-56
2024/01/13 02:56:35;;;;;;;;;;;19.50;45.40;;;;;;5083849;28;19920;-55
2024/01/13 02:59:02;;;;;;;;;;;19.50;45.40;;;;;;5074420;28;19920;-56
2024/01/13 03:01:29;;;;;;;;;;;19.50;45.30;;;;;;5093634;28;19951;-56
2024/01/13 03:03:56;;;;;;;;;;;19.50;45.40;;;;;;5075306;28;19931;-54
2024/01/13 03:06:23;;;;;;;;;;;19.50;45.30;;;;;;5082705;28;19928;-52
2024/01/13 03:08:50;;;;;;;;;;;19.50;45.30;;;;;;5074343;28;19920;-56
2024/01/13 03:11:17;;;;;;;;;;;19.50;45.30;;;;;;5074550;28;20319;-55
2024/01/13 03:13:45;;;;;;;;;;;19.50;45.30;;;;;;5092650;28;19952;-55
2024/01/13 03:16:11;;;;;;;;;;;19.50;45.30;;;;;;5092615;28;19920;-54
2024/01/13 03:18:38;;;;;;;;;;;19.50;45.30;;;;;;5083439;28;19928;-55
2024/01/13 03:21:05;;;;;;;;;;;19.50;45.30;;;;;;5083442;28;19924;-56
2024/01/13 03:23:32;;;;;;;;;;;19.50;45.30;;;;;;5074301;28;19934;-56
2024/01/13 03:25:58;;;;;;;;;;;19.50;45.30;;;;;;5092871;28;19920;-56
2024/01/13 03:28:25;;;;;;;;;;;19.50;45.20;;;;;;5073625;28;19920;-56
2024/01/13 03:30:53;;;;;;;;;;;19.40;45.20;;;;;;5087228;28;19945;-55
2024/01/13 03:33:20;;;;;;;;;;;19.40;45.20;;;;;;5074778;28;19920;-55
2024/01/13 03:35:46;;;;;;;;;;;19.50;45.20;;;;;;5073875;28;19924;-56
2024/01/13 03:38:13;;;;;;;;;;;19.50;45.20;;;;;;5092694;28;20257;-56
2024/01/13 03:40:40;;;;;;;;;;;19.50;45.20;;;;;;5095259;28;19963;-55
2024/01/13 03:43:07;;;;;;;;;;;19.50;45.20;;;;;;5082556;28;19920;-57
2024/01/13 03:45:34;;;;;;;;;;;19.50;45.20;;;;;;5092655;28;19965;-56
2024/01/13 03:48:02;;;;;;;;;;;19.40;45.10;;;;;;5093928;28;19920;-54
2024/01/13 03:50:29;;;;;;;;;;;19.40;45.10;;;;;;5072559;28;19924;-55
2024/01/13 03:52:55;;;;;;;;;;;19.40;45.10;;;;;;5080714;28;20366;-55
2024/01/13 03:55:22;;;;;;;;;;;19.50;45.20;;;;;;5074260;28;19970;-55
2024/01/13 03:57:49;;;;;;;;;;;19.40;45.10;;;;;;5088956;28;19931;-56
2024/01/13 04:00:16;;;;;;;;;;;19.40;45.10;;;;;;5094644;28;19920;-53
2024/01/13 04:02:42;;;;;;;;;;;19.50;45.20;;;;;;5091940;28;19993;-54
2024/01/13 04:05:10;;;;;;;;;;;19.40;45.10;;;;;;5086686;28;19924;-56
2024/01/13 04:07:37;;;;;;;;;;;19.40;45.10;;;;;;5091890;28;19924;-55
2024/01/13 04:10:04;;;;;;;;;;;19.50;45.20;;;;;;5076179;28;19924;-56
2024/01/13 04:12:31;;;;;;;;;;;19.40;45.10;;;;;;5065564;28;19948;-55
2024/01/13 04:14:57;;;;;;;;;;;19.40;45.10;;;;;;5076106;28;19923;-54
2024/01/13 04:17:24;;;;;;;;;;;19.50;45.10;;;;;;5091734;28;19927;-55
2024/01/13 04:19:51;;;;;;;;;;;19.40;45.10;;;;;;5073966;28;19920;-57
2024/01/13 04:22:19;;;;;;;;;;;19.40;45.10;;;;;;5090483;28;19921;-54
2024/01/13 04:24:46;;;;;;;;;;;19.40;45.10;;;;;;5090777;28;19927;-55
2024/01/13 04:27:12;;;;;;;;;;;19.40;45.10;;;;;;5073667;28;19920;-54
2024/01/13 04:29:39;;;;;;;;;;;19.40;45.10;;;;;;5073594;28;19924;-57
2024/01/13 04:32:06;;;;;;;;;;;19.40;45.10;;;;;;5091703;28;19924;-54
2024/01/13 04:34:33;;;;;;;;;;;19.50;45.10;;;;;;5084522;28;19970;-54
2024/01/13 04:37:00;;;;;;;;;;;19.40;45.00;;;;;;5073743;28;19927;-54
2024/01/13 04:39:28;;;;;;;;;;;19.40;45.10;;;;;;5076320;28;19927;-56
2024/01/13 04:41:55;;;;;;;;;;;19.40;45.00;;;;;;5091481;28;19920;-56
2024/01/13 04:44:22;;;;;;;;;;;19.40;45.00;;;;;;5072162;28;19966;-56
2024/01/13 04:46:48;;;;;;;;;;;19.40;45.00;;;;;;5072457;28;19924;-54
2024/01/13 04:49:15;;;;;;;;;;;19.40;45.00;;;;;;5088042;28;19920;-56
2024/01/13 04:51:42;;;;;;;;;;;19.40;45.00;;;;;;5072879;28;19927;-55
2024/01/13 04:54:11;;;;;;;;;;;19.40;45.00;;;;;;5080796;28;19920;-56
2024/01/13 04:56:39;;;;;;;;;;;19.40;45.00;;;;;;5073345;28;19962;-56
2024/01/13 04:59:06;;;;;;;;;;;19.40;45.00;;;;;;5072445;28;20109;-57
2024/01/13 05:01:32;;;;;;;;;;;19.40;45.00;;;;;;5091404;28;19924;-54
2024/01/13 05:03:59;;;;;;;;;;;19.40;45.00;;;;;;5097193;28;19920;-55
2024/01/13 05:06:26;;;;;;;;;;;19.40;44.90;;;;;;5073434;28;19920;-55
2024/01/13 05:08:52;;;;;;;;;;;19.40;45.00;;;;;;5072443;28;19920;-53
2024/01/13 05:11:19;;;;;;;;;;;19.40;44.90;;;;;;5066975;28;19925;-56
2024/01/13 05:13:47;;;;;;;;;;;19.40;44.90;;;;;;5087576;28;19923;-55
2024/01/13 05:16:14;;;;;;;;;;;19.40;44.90;;;;;;5076749;28;19920;-57
2024/01/13 05:18:41;;;;;;;;;;;19.40;44.90;;;;;;5089203;28;19924;-54
2024/01/13 05:21:07;;;;;;;;;;;19.40;44.90;;;;;;5079183;28;19920;-56
2024/01/13 05:23:34;;;;;;;;;;;19.40;44.90;;;;;;5090509;28;19993;-56
2024/01/13 05:26:01;;;;;;;;;;;19.40;44.90;;;;;;5081614;28;19924;-53
2024/01/13 05:28:28;;;;;;;;;;;19.40;44.80;;;;;;5073169;28;20429;-55
2024/01/13 05:30:56;;;;;;;;;;;19.40;44.80;;;;;;5081649;28;19942;-55
2024/01/13 05:33:23;;;;;;;;;;;19.40;44.80;;;;;;5080807;28;19920;-56
2024/01/13 05:35:49;;;;;;;;;;;19.40;44.80;;;;;;5092690;28;19925;-56
2024/01/13 05:38:17;;;;;;;;;;;19.40;44.80;;;;;;5101725;28;19950;-55
2024/01/13 05:40:44;;;;;;;;;;;19.40;44.80;;;;;;5082096;28;19920;-56
2024/01/13 05:43:11;;;;;;;;;;;19.40;44.90;;;;;;5076533;28;19924;-54
2024/01/13 05:45:37;;;;;;;;;;;19.40;44.80;;;;;;5097943;28;19924;-51
2024/01/13 05:48:06;;;;;;;;;;;19.40;44.80;;;;;;5076700;28;19920;-56
2024/01/13 05:50:32;;;;;;;;;;;19.40;44.80;;;;;;5076155;28;19920;-56
2024/01/13 05:52:59;;;;;;;;;;;19.40;44.80;;;;;;5089114;28;19920;-54
2024/01/13 05:55:26;;;;;;;;;;;19.40;44.80;;;;;;5076194;28;19924;-56
2024/01/13 05:57:53;;;;;;;;;;;19.40;44.80;;;;;;5084988;28;19924;-56
2024/01/13 06:00:20;;;;;;;;;;;19.40;44.80;;;;;;5074965;28;19963;-55
2024/01/13 06:02:46;;;;;;;;;;;19.40;44.80;;;;;;5075694;28;19920;-54
2024/01/13 06:05:14;;;;;;;;;;;19.40;44.80;;;;;;5076591;28;20357;-53
2024/01/13 06:07:41;;;;;;;;;;;19.40;44.80;;;;;;5094584;28;19924;-55
2024/01/13 06:10:08;;;;;;;;;;;19.40;44.80;;;;;;5090070;28;19920;-55
2024/01/13 06:12:35;;;;;;;;;;;19.40;44.80;;;;;;5097098;28;19927;-54
2024/01/13 06:15:01;;;;;;;;;;;19.40;44.80;;;;;;5076603;28;19924;-55
2024/01/13 06:17:28;;;;;;;;;;;19.40;44.80;;;;;;5094046;28;19959;-55
2024/01/13 06:19:55;;;;;;;;;;;19.40;44.80;;;;;;5076257;28;19924;-54
2024/01/13 06:22:23;;;;;;;;;;;19.40;44.80;;;;;;5075890;28;19923;-55
2024/01/13 06:24:50;;;;;;;;;;;19.40;44.80;;;;;;5095843;28;19920;-56
2024/01/13 06:27:16;;;;;;;;;;;19.40;44.80;;;;;;5077713;28;19956;-56
2024/01/13 06:29:43;;;;;;;;;;;19.40;44.80;;;;;;5081185;28;19935;-53
2024/01/13 06:32:10;;;;;;;;;;;19.40;44.80;;;;;;5083946;28;19928;-55
2024/01/13 06:34:36;;;;;;;;;;;19.40;44.70;;;;;;5084327;28;19973;-55
2024/01/13 06:37:03;;;;;;;;;;;19.40;44.70;;;;;;5078954;28;19932;-56
2024/01/13 06:39:31;;;;;;;;;;;19.40;44.70;;;;;;5075987;28;19920;-54
2024/01/13 06:41:58;;;;;;;;;;;19.40;45.30;;;;;;5092135;28;19927;-56
2024/01/13 06:44:25;;;;;;;;;;;19.40;44.70;;;;;;5092960;28;19970;-55
2024/01/13 06:46:52;;;;;;;;;;;19.40;44.70;;;;;;5074423;28;19924;-54
2024/01/13 06:49:18;;;;;;;;;;;19.40;44.70;;;;;;5092970;28;19927;-55
2024/01/13 06:51:45;;;;;;;;;;;19.40;44.70;;;;;;5083811;28;19924;-55
2024/01/13 06:54:12;;;;;;;;;;;19.30;44.60;;;;;;5072338;28;19928;-54
2024/01/13 06:56:41;;;;;;;;;;;19.30;44.60;;;;;;5080079;28;19931;-56
2024/01/13 06:59:08;;;;;;;;;;;19.30;44.60;;;;;;5093659;28;19927;-54
2024/01/13 07:01:35;;;;;;;;;;;19.40;44.70;;;;;;5099392;28;19931;-54
2024/01/13 07:04:01;;;;;;;;;;;19.40;44.70;;;;;;5074774;28;19920;-55
2024/01/13 07:06:28;;;;;;;;;;;19.30;44.50;;;;;;5082109;28;19932;-55
2024/01/13 07:08:56;;;;;;;;;;;19.30;44.50;;;;;;5078562;28;19924;-56
2024/01/13 07:11:23;;;;;;;;;;;19.40;44.60;;;;;;5081271;28;19931;-55
2024/01/13 07:13:51;;;;;;;;;;;19.40;44.60;;;;;;5091920;28;19924;-56
2024/01/13 07:16:17;;;;;;;;;;;19.40;44.60;;;;;;5080336;28;19969;-54
2024/01/13 07:18:44;;;;;;;;;;;19.40;44.60;;;;;;5090924;28;19938;-55
2024/01/13 07:21:11;;;;;;;;;;;19.30;44.50;;;;;;5084768;28;19920;-55
2024/01/13 07:23:38;;;;;;;;;;;19.30;44.50;;;;;;5093083;28;19950;-55
2024/01/13 07:26:05;;;;;;;;;;;19.40;44.60;;;;;;5095805;28;19927;-53
2024/01/13 07:28:32;;;;;;;;;;;19.40;44.50;;;;;;5078521;28;19953;-55
2024/01/13 07:31:00;;;;;;;;;;;19.30;44.40;;;;;;5076217;28;19970;-53
2024/01/13 07:33:27;;;;;;;;;;;19.40;44.60;;;;;;5076821;28;19955;-55
2024/01/13 07:35:53;;;;;;;;;;;19.30;44.40;;;;;;5078478;28;19920;-55
2024/01/13 07:38:19;;;;;;;;;;;19.30;44.40;;;;;;5094585;28;19973;-54
2024/01/13 07:40:46;;;;;;;;;;;19.40;44.50;;;;;;5078959;28;19924;-56
2024/01/13 07:43:13;;;;;;;;;;;19.40;44.50;;;;;;5079585;28;19961;-56
2024/01/13 07:45:40;;;;;;;;;;;19.40;44.50;;;;;;5083352;28;20003;-56
2024/01/13 07:48:08;;;;;;;;;;;19.40;44.50;;;;;;5081347;28;19973;-55
2024/01/13 07:50:35;;;;;;;;;;;19.40;44.50;;;;;;5070940;28;19928;-53
2024/01/13 07:53:01;;;;;;;;;;;19.30;44.40;;;;;;5076895;28;19978;-55
2024/01/13 07:55:28;;;;;;;;;;;19.30;44.50;;;;;;5074294;28;19924;-56
2024/01/13 07:57:55;;;;;;;;;;;19.40;44.60;;;;;;5090737;28;19932;-56
2024/01/13 08:00:22;;;;;;;;;;;19.30;44.40;;;;;;5074941;28;19924;-56
2024/01/13 08:02:49;;;;;;;;;;;19.30;44.40;;;;;;5081018;28;19932;-55
2024/01/13 08:05:17;;;;;;;;;;;19.40;44.50;;;;;;5078067;28;19924;-56
2024/01/13 08:07:44;;;;;;;;;;;19.40;44.50;;;;;;5074930;28;19959;-54
2024/01/13 08:10:11;;;;;;;;;;;19.40;44.50;;;;;;5090348;28;19973;-55
2024/01/13 08:12:38;;;;;;;;;;;19.30;44.40;;;;;;5074799;28;19931;-57
2024/01/13 08:15:05;;;;;;;;;;;19.40;44.50;;;;;;5091545;28;19920;-55
2024/01/13 08:17:32;;;;;;;;;;;19.40;44.50;;;;;;5089002;28;19924;-56
2024/01/13 08:19:58;;;;;;;;;;;19.30;44.40;;;;;;5090847;28;19925;-56
2024/01/13 08:22:26;;;;;;;;;;;19.40;44.50;;;;;;5089729;28;19946;-54
2024/01/13 08:24:53;;;;;;;;;;;19.30;44.40;;;;;;5076842;28;19932;-55
2024/01/13 08:27:20;;;;;;;;;;;19.30;44.40;;;;;;5075715;28;19946;-55
2024/01/13 08:29:47;;;;;;;;;;;19.40;44.50;;;;;;5075653;28;19923;-56
2024/01/13 08:32:13;;;;;;;;;;;19.40;44.50;;;;;;5089709;28;19993;-55
2024/01/13 08:34:40;;;;;;;;;;;19.40;44.50;;;;;;5074610;28;19924;-56
2024/01/13 08:37:07;;;;;;;;;;;19.30;44.30;;;;;;5076778;28;19985;-55
2024/01/13 08:39:35;;;;;;;;;;;19.40;44.40;;;;;;5079085;28;19924;-56
2024/01/13 08:42:02;;;;;;;;;;;19.40;44.40;;;;;;5074394;28;19927;-56
2024/01/13 08:44:29;;;;;;;;;;;19.40;44.40;;;;;;5090025;28;19926;-56
2024/01/13 08:46:56;;;;;;;;;;;19.30;44.30;;;;;;5083402;28;19931;-55
2024/01/13 08:49:23;;;;;;;;;;;19.40;44.50;;;;;;5080108;28;19932;-55
2024/01/13 08:51:50;;;;;;;;;;;19.30;44.30;;;;;;5082236;28;19924;-56
2024/01/13 08:54:18;;;;;;;;;;;19.40;44.40;;;;;;5078898;28;19924;-56
2024/01/13 08:56:46;;;;;;;;;;;19.30;44.30;;;;;;5077084;28;19977;-56
2024/01/13 08:59:13;;;;;;;;;;;19.30;44.30;;;;;;5090487;28;19924;-54
2024/01/13 09:01:40;;;;;;;;;;;19.30;44.30;;;;;;5074598;28;20570;-56
2024/01/13 09:04:06;;;;;;;;;;;19.40;44.40;;;;;;5071447;28;20383;-55
2024/01/13 09:06:33;;;;;;;;;;;19.30;44.30;;;;;;5068959;28;19950;-56
2024/01/13 09:09:00;;;;;;;;;;;19.40;44.40;;;;;;5076443;28;19929;-53
2024/01/13 09:11:27;;;;;;;;;;;19.40;44.40;;;;;;5077506;28;19927;-56
2024/01/13 09:13:55;;;;;;;;;;;19.40;44.40;;;;;;5090524;28;19924;-55
2024/01/13 09:16:21;;;;;;;;;;;19.30;44.30;;;;;;5075419;28;19951;-56
2024/01/13 09:18:48;;;;;;;;;;;19.30;44.30;;;;;;5089708;28;20242;-55
2024/01/13 09:21:17;;;;;;;;;;;19.40;44.40;;;;;;5089939;28;19924;-56
2024/01/13 09:23:43;;;;;;;;;;;19.30;44.30;;;;;;5077227;28;19936;-56
2024/01/13 09:26:10;;;;;;;;;;;19.40;44.40;;;;;;5071102;28;19928;-56
2024/01/13 09:28:37;;;;;;;;;;;19.40;44.40;;;;;;5089442;28;19924;-56
2024/01/13 09:31:06;;;;;;;;;;;19.40;44.40;;;;;;5091872;28;19924;-55
2024/01/13 09:33:33;;;;;;;;;;;19.40;44.40;;;;;;5092703;28;19920;-56
2024/01/13 09:35:59;;;;;;;;;;;19.40;44.30;;;;;;5071913;28;19933;-57
2024/01/13 09:38:26;;;;;;;;;;;19.30;44.30;;;;;;5088487;28;19920;-57
2024/01/13 09:40:53;;;;;;;;;;;19.40;44.30;;;;;;5080183;28;19924;-57
2024/01/13 09:43:23;;;;;;;;;;;19.40;44.30;;;;;;5070912;28;19943;-54
2024/01/13 09:45:49;;;;;;;;;;;19.30;44.20;;;;;;5072633;28;19920;-56
2024/01/13 09:48:19;;;;;;;;;;;19.40;44.30;;;;;;5089933;28;20006;-56
2024/01/13 09:50:46;;;;;;;;;;;19.30;44.10;;;;;;5066169;28;20151;-57
2024/01/13 09:53:12;;;;;;;;;;;19.30;44.10;;;;;;5083576;28;19927;-57
2024/01/13 09:55:39;;;;;;;;;;;19.30;44.00;;;;;;5089519;28;19931;-56
2024/01/13 09:58:07;;;;;;;;;;;19.30;43.90;;;;;;5088528;28;19920;-57
2024/01/13 10:00:34;;;;;;;;;;;19.30;43.80;;;;;;5070490;28;20027;-56
2024/01/13 10:03:01;;;;;;;;;;;19.30;43.80;;;;;;5084684;28;19924;-57
2024/01/13 10:05:30;;;;;;;;;;;19.30;43.70;;;;;;5079789;28;20014;-55
2024/01/13 10:07:56;;;;;;;;;;;19.30;43.70;;;;;;5079693;28;19927;-56
2024/01/13 10:10:25;;;;;;;;;;;19.30;43.60;;;;;;5069448;28;19920;-56
2024/01/13 10:12:51;;;;;;;;;;;19.30;43.50;;;;;;5094940;28;19920;-56
2024/01/13 10:15:18;;;;;;;;;;;19.30;43.40;;;;;;5092116;28;19927;-56
2024/01/13 10:17:45;;;;;;;;;;;19.30;43.30;;;;;;5075150;28;19924;-55
2024/01/13 10:20:13;;;;;;;;;;;19.30;43.20;;;;;;5074861;28;19928;-56
2024/01/13 10:22:41;;;;;;;;;;;19.30;43.10;;;;;;5075302;28;19971;-56
2024/01/13 10:25:08;;;;;;;;;;;19.30;43.00;;;;;;5075777;28;19924;-56
2024/01/13 10:27:36;;;;;;;;;;;19.30;43.00;;;;;;5094750;28;19980;-57
2024/01/13 10:30:03;;;;;;;;;;;19.30;43.00;;;;;;5094585;28;19920;-57
2024/01/13 10:32:30;;;;;;;;;;;19.30;42.90;;;;;;5095305;28;19920;-56
2024/01/13 10:34:57;;;;;;;;;;;19.30;42.90;;;;;;5091558;28;21070;-57
2024/01/13 10:37:25;;;;;;;;;;;19.30;42.90;;;;;;5070150;28;19927;-57
2024/01/13 10:39:53;;;;;;;;;;;19.30;42.80;;;;;;5094904;28;19927;-57
2024/01/13 10:42:21;;;;;;;;;;;19.30;42.90;;;;;;5074918;28;19924;-57
2024/01/13 10:44:53;;;;;;;;;;;19.30;42.20;;;;;;5077764;28;19969;-57
2024/01/13 10:47:20;;;;;;;;;;;19.30;40.90;;;;;;5078561;28;19928;-57
2024/01/13 10:49:47;;;;;;;;;;;19.20;40.80;;;;;;5080639;28;19920;-57
2024/01/13 10:52:13;;;;;;;;;;;19.20;41.10;;;;;;5082198;28;20307;-57
2024/01/13 10:54:40;;;;;;;;;;;19.20;41.20;;;;;;5076372;28;19924;-57
2024/01/13 10:57:08;;;;;;;;;;;19.20;41.20;;;;;;5074911;28;19920;-57
2024/01/13 10:59:35;;;;;;;;;;;19.20;41.40;;;;;;5093041;28;19931;-57
2024/01/13 11:02:02;;;;;;;;;;;19.10;41.30;;;;;;5081873;28;19928;-57
2024/01/13 11:04:29;;;;;;;;;;;19.20;41.50;;;;;;5091693;28;19920;-57
2024/01/13 11:06:56;;;;;;;;;;;19.10;41.40;;;;;;5088486;28;19932;-57
2024/01/13 11:09:23;;;;;;;;;;;19.10;41.40;;;;;;5089798;28;19924;-57
2024/01/13 11:11:51;;;;;;;;;;;19.10;41.50;;;;;;5074090;28;19920;-57
2024/01/13 11:14:22;;;;;;;;;;;19.10;41.40;;;;;;5090272;28;20180;-57
2024/01/13 11:16:49;;;;;;;;;;;19.10;41.50;;;;;;5089945;28;19920;-57
2024/01/13 11:19:16;;;;;;;;;;;19.10;41.40;;;;;;5091821;28;20162;-57
2024/01/13 11:21:48;;;;;;;;;;;19.10;41.50;;;;;;5072183;28;19947;-57
2024/01/13 11:24:17;;;;;;;;;;;19.10;41.40;;;;;;5087793;28;20036;-57
2024/01/13 11:26:44;;;;;;;;;;;19.10;41.40;;;;;;5090475;28;19924;-57
2024/01/13 11:29:17;;;;;;;;;;;19.10;41.40;;;;;;5073470;28;19970;-57
2024/01/13 11:31:45;;;;;;;;;;;19.10;41.40;;;;;;5074994;28;20426;-57
2024/01/13 11:34:12;;;;;;;;;;;19.10;41.40;;;;;;5087387;28;19920;-57
2024/01/13 11:36:39;;;;;;;;;;;19.10;41.40;;;;;;5072822;28;19932;-57
2024/01/13 11:39:06;;;;;;;;;;;19.10;41.30;;;;;;5091446;28;19931;-57
2024/01/13 11:41:40;;;;;;;;;;;19.10;41.40;;;;;;5072878;28;19924;-57
2024/01/13 11:44:09;;;;;;;;;;;19.10;41.30;;;;;;5088233;28;20130;-57
2024/01/13 11:46:39;;;;;;;;;;;19.10;41.30;;;;;;5074547;28;19924;-57
2024/01/13 11:49:07;;;;;;;;;;;19.10;41.30;;;;;;5091226;28;19928;-57
2024/01/13 11:51:52;;;;;;;;;;;19.10;41.30;;;;;;5090727;28;19935;-57
2024/01/13 11:54:19;;;;;;;;;;;19.10;41.30;;;;;;5069420;28;20232;-57
2024/01/13 11:56:46;;;;;;;;;;;19.10;41.30;;;;;;5088495;28;19924;-57
2024/01/13 11:59:13;;;;;;;;;;;19.10;41.30;;;;;;5076683;28;20304;-57
2024/01/13 12:01:39;;;;;;;;;;;19.10;41.30;;;;;;5069883;28;19924;-56
2024/01/13 12:04:08;;;;;;;;;;;19.10;41.30;;;;;;5073106;28;19969;-56
2024/01/13 12:06:35;;;;;;;;;;;19.10;41.30;;;;;;5076270;28;19920;-57
2024/01/13 12:09:01;;;;;;;;;;;19.10;41.30;;;;;;5078231;28;19931;-57
2024/01/13 12:11:28;;;;;;;;;;;19.10;41.30;;;;;;5067090;28;19986;-57
2024/01/13 12:13:55;;;;;;;;;;;19.10;41.90;;;;;;5090740;28;20017;-57
2024/01/13 12:16:22;;;;;;;;;;;19.10;41.30;;;;;;5072414;28;19927;-57
2024/01/13 12:18:48;;;;;;;;;;;19.10;41.30;;;;;;5090246;28;19920;-57
2024/01/13 12:21:16;;;;;;;;;;;19.10;41.20;;;;;;5075859;28;19927;-57
2024/01/13 12:23:43;;;;;;;;;;;19.10;41.20;;;;;;5090856;28;19942;-57
2024/01/13 12:26:10;;;;;;;;;;;19.10;41.90;;;;;;5072852;28;20265;-57
2024/01/13 12:28:37;;;;;;;;;;;19.10;41.20;;;;;;5080625;28;19963;-57
2024/01/13 12:31:04;;;;;;;;;;;19.10;41.20;;;;;;5072014;28;20369;-57
2024/01/13 12:33:31;;;;;;;;;;;19.10;41.20;;;;;;5072512;28;19924;-57
2024/01/13 12:35:59;;;;;;;;;;;19.10;41.20;;;;;;5074093;28;19924;-57
2024/01/13 12:38:28;;;;;;;;;;;19.10;41.20;;;;;;5072568;28;19955;-57
2024/01/13 12:40:55;;;;;;;;;;;19.10;41.20;;;;;;5072594;28;19920;-57
2024/01/13 12:43:22;;;;;;;;;;;19.10;41.20;;;;;;5090674;28;19924;-57
2024/01/13 12:45:49;;;;;;;;;;;19.10;41.20;;;;;;5069644;28;19924;-57
2024/01/13 12:48:16;;;;;;;;;;;19.10;41.20;;;;;;5090146;28;19935;-57
2024/01/13 12:50:43;;;;;;;;;;;19.10;41.20;;;;;;5072802;28;19927;-57
2024/01/13 12:53:09;;;;;;;;;;;19.10;41.20;;;;;;5070243;28;19924;-57
2024/01/13 12:55:37;;;;;;;;;;;19.10;41.20;;;;;;5083391;28;19920;-57
2024/01/13 12:58:04;;;;;;;;;;;19.10;41.20;;;;;;5073893;28;19924;-57
2024/01/13 13:00:31;;;;;;;;;;;19.10;41.20;;;;;;5072318;28;19924;-57
2024/01/13 13:02:58;;;;;;;;;;;19.00;41.10;;;;;;5088946;28;19978;-57
2024/01/13 13:05:25;;;;;;;;;;;19.10;41.20;;;;;;5072229;28;19920;-57
2024/01/13 13:07:52;;;;;;;;;;;19.10;41.20;;;;;;5067907;28;19932;-57
2024/01/13 13:10:19;;;;;;;;;;;19.10;41.10;;;;;;5067675;28;20273;-57
2024/01/13 13:12:49;;;;;;;;;;;19.10;41.10;;;;;;5071833;28;19992;-57
2024/01/13 13:15:16;;;;;;;;;;;19.10;41.10;;;;;;5089132;28;19946;-57
2024/01/13 13:17:43;;;;;;;;;;;19.00;41.00;;;;;;5071625;28;19939;-57
2024/01/13 13:20:11;;;;;;;;;;;19.00;41.00;;;;;;5089813;28;19956;-57
2024/01/13 13:22:38;;;;;;;;;;;19.10;41.10;;;;;;5082115;28;19935;-57
2024/01/13 13:25:05;;;;;;;;;;;19.00;41.00;;;;;;5071685;28;19986;-57
2024/01/13 13:27:35;;;;;;;;;;;19.00;41.00;;;;;;5090590;28;19977;-57
2024/01/13 13:30:04;;;;;;;;;;;19.00;41.00;;;;;;5080864;28;20029;-57
2024/01/13 13:32:31;;;;;;;;;;;19.00;41.00;;;;;;5089929;28;19920;-59
2024/01/13 13:34:58;;;;;;;;;;;19.00;39.90;;;;;;5089989;28;19940;-59
2024/01/13 13:37:25;;;;;;;;;;;19.00;38.40;;;;;;5090515;28;19920;-59
2024/01/13 13:39:51;;;;;;;;;;;19.00;37.80;;;;;;5078074;28;19966;-59
2024/01/13 13:42:18;;;;;;;;;;;18.80;36.50;;;;;;5095928;28;19981;-59
2024/01/13 13:44:45;;;;;;;;;;;18.70;36.40;;;;;;5090550;28;19920;-59
2024/01/13 13:47:13;;;;;;;;;;;18.50;37.00;;;;;;5089501;28;20306;-58
2024/01/13 13:49:40;;;;;;;;;;;18.40;36.80;;;;;;5090006;28;19924;-58
2024/01/13 13:52:06;;;;;;;;;;;18.20;36.70;;;;;;5097227;28;19924;-59
2024/01/13 13:54:33;;;;;;;;;;;18.00;36.60;;;;;;5080955;28;20364;-58
2024/01/13 13:57:00;;;;;;;;;;;17.80;36.70;;;;;;5077975;28;19920;-59
2024/01/13 13:59:27;;;;;;;;;;;17.70;37.20;;;;;;5076076;28;19920;-57
2024/01/13 14:01:53;;;;;;;;;;;17.60;37.80;;;;;;5074525;28;19952;-56
2024/01/13 14:04:22;;;;;;;;;;;17.50;38.40;;;;;;5094230;28;19924;-57
2024/01/13 14:06:49;;;;;;;;;;;17.50;38.90;;;;;;5092912;28;19995;-57
2024/01/13 14:09:16;;;;;;;;;;;17.60;39.30;;;;;;5094210;28;19920;-57
2024/01/13 14:11:43;;;;;;;;;;;17.60;39.60;;;;;;5074858;28;19973;-57
2024/01/13 14:14:11;;;;;;;;;;;17.60;39.90;;;;;;5082429;28;19927;-57